Time;durP1;ratioP1;P1;durP2;ratioP2;P2;SDS_P1;SDS_P2;PMS_P1;PMS_P2;Temp;Humidity;BMP_temperature;BMP_pressure;BME280_temperature;BME280_humidity;BME280_pressure;Samples;Min_cycle;Max_cycle;Signal;HPM_P1;HPM_P2
2022/04/16 00:02:05;;;;;;;21.00;13.52;;;7.50;99.90;;;;;;5039242;28;20040;-72
2022/04/16 00:04:33;;;;;;;20.00;13.98;;;7.40;99.90;;;;;;5060672;28;20036;-72
2022/04/16 00:06:59;;;;;;;17.75;13.32;;;7.40;99.90;;;;;;5045091;28;20084;-72
2022/04/16 00:09:25;;;;;;;17.90;14.10;;;7.40;99.90;;;;;;5055330;28;20060;-72
2022/04/16 00:11:51;;;;;;;17.58;13.27;;;7.30;99.90;;;;;;5047280;28;20049;-72
2022/04/16 00:14:17;;;;;;;19.70;14.70;;;7.30;99.90;;;;;;5051275;28;20120;-72
2022/04/16 00:16:44;;;;;;;21.48;15.02;;;7.30;99.90;;;;;;5051823;28;20028;-72
2022/04/16 00:19:11;;;;;;;22.00;14.82;;;7.30;99.90;;;;;;5047906;28;20044;-72
2022/04/16 00:21:40;;;;;;;20.50;15.20;;;7.20;99.90;;;;;;5057384;28;20037;-72
2022/04/16 00:24:07;;;;;;;19.73;15.20;;;7.20;99.90;;;;;;5072086;28;20143;-72
2022/04/16 00:26:33;;;;;;;23.25;16.02;;;7.10;99.90;;;;;;5063831;28;20127;-72
2022/04/16 00:28:59;;;;;;;23.30;16.60;;;7.10;99.90;;;;;;5045210;28;20128;-72
2022/04/16 00:31:29;;;;;;;22.90;15.48;;;7.10;99.90;;;;;;5045214;28;20036;-72
2022/04/16 00:33:55;;;;;;;23.25;15.52;;;7.10;99.90;;;;;;5061018;28;20037;-72
2022/04/16 00:36:21;;;;;;;22.45;16.00;;;7.00;99.90;;;;;;5047860;28;20102;-72
2022/04/16 00:38:47;;;;;;;22.77;16.42;;;7.00;99.90;;;;;;5044616;28;20048;-72
2022/04/16 00:41:13;;;;;;;22.52;16.52;;;7.00;99.90;;;;;;5054471;28;20123;-72
2022/04/16 00:43:39;;;;;;;22.58;17.02;;;7.00;99.90;;;;;;5065944;28;20037;-72
2022/04/16 00:46:04;;;;;;;23.50;17.25;;;7.00;99.90;;;;;;5057401;28;20044;-72
2022/04/16 00:48:30;;;;;;;29.33;18.92;;;6.90;99.90;;;;;;5064732;28;20056;-72
2022/04/16 00:51:04;;;;;;;27.52;19.05;;;6.90;99.90;;;;;;5048349;28;20041;-72
2022/04/16 00:53:30;;;;;;;26.25;18.55;;;6.90;99.90;;;;;;5029184;28;20033;-72
2022/04/16 00:56:00;;;;;;;26.52;19.00;;;6.90;99.90;;;;;;5068816;28;20074;-72
2022/04/16 00:58:26;;;;;;;23.45;19.15;;;6.90;99.90;;;;;;5071951;28;20044;-72
2022/04/16 01:00:52;;;;;;;27.08;18.63;;;6.80;99.90;;;;;;5060225;28;20036;-72
2022/04/16 01:03:18;;;;;;;27.98;19.65;;;6.80;99.90;;;;;;5075320;28;20039;-72
2022/04/16 01:05:43;;;;;;;24.15;18.10;;;6.80;99.90;;;;;;5065614;28;20067;-72
2022/04/16 01:08:09;;;;;;;24.10;18.90;;;6.80;99.90;;;;;;5073255;28;20072;-72
2022/04/16 01:10:35;;;;;;;27.27;19.08;;;6.80;99.90;;;;;;5068706;28;20047;-71
2022/04/16 01:13:03;;;;;;;24.50;18.73;;;6.80;99.90;;;;;;5049710;28;20028;-71
2022/04/16 01:15:30;;;;;;;25.25;19.13;;;6.70;99.90;;;;;;5045227;28;20044;-71
2022/04/16 01:17:57;;;;;;;26.83;19.45;;;6.70;99.90;;;;;;5048791;28;20044;-71
2022/04/16 01:20:23;;;;;;;27.27;20.08;;;6.70;99.90;;;;;;5046064;28;20033;-71
2022/04/16 01:22:50;;;;;;;28.52;19.20;;;6.70;99.90;;;;;;5047464;28;20044;-71
2022/04/16 01:25:18;;;;;;;31.85;19.60;;;6.60;99.90;;;;;;5032449;28;20036;-71
2022/04/16 01:27:45;;;;;;;28.50;20.48;;;6.60;99.90;;;;;;5069516;28;20066;-71
2022/04/16 01:30:22;;;;;;;28.58;20.67;;;6.60;99.90;;;;;;5044088;28;20040;-71
2022/04/16 01:32:48;;;;;;;26.77;19.60;;;6.60;99.90;;;;;;5054198;28;20181;-71
2022/04/16 01:35:16;;;;;;;25.67;18.35;;;6.60;99.90;;;;;;5067811;28;20064;-71
2022/04/16 01:37:41;;;;;;;28.88;19.80;;;6.50;99.90;;;;;;5054905;28;20122;-71
2022/04/16 01:40:09;;;;;;;27.80;19.80;;;6.60;99.90;;;;;;5049234;28;20082;-71
2022/04/16 01:42:35;;;;;;;25.33;19.15;;;6.50;99.90;;;;;;5044254;28;20036;-71
2022/04/16 01:45:06;;;;;;;29.73;20.23;;;6.50;99.90;;;;;;5052833;28;20029;-71
2022/04/16 01:47:36;;;;;;;31.70;20.00;;;6.50;99.90;;;;;;5059693;28;20043;-71
2022/04/16 01:50:07;;;;;;;27.58;20.05;;;6.50;99.90;;;;;;5066530;28;20112;-72
2022/04/16 01:52:34;;;;;;;25.30;19.20;;;6.40;99.90;;;;;;5053886;28;20029;-71
2022/04/16 01:55:00;;;;;;;26.10;19.33;;;6.40;99.90;;;;;;5048758;28;20513;-71
2022/04/16 01:57:25;;;;;;;28.17;20.65;;;6.40;99.90;;;;;;5054134;28;20041;-71
2022/04/16 01:59:52;;;;;;;26.08;18.17;;;6.30;99.90;;;;;;5051574;28;20036;-71
2022/04/16 02:02:19;;;;;;;28.10;20.23;;;6.30;99.90;;;;;;5068481;28;20037;-71
2022/04/16 02:04:45;;;;;;;26.05;18.45;;;6.30;99.90;;;;;;5051357;28;20076;-71
2022/04/16 02:07:11;;;;;;;27.08;20.35;;;6.30;99.90;;;;;;5069504;28;20043;-71
2022/04/16 02:09:37;;;;;;;29.02;20.70;;;6.30;99.90;;;;;;5052995;28;20040;-71
2022/04/16 02:12:03;;;;;;;26.48;20.75;;;6.30;99.90;;;;;;5046274;28;20037;-71
2022/04/16 02:14:28;;;;;;;25.58;21.00;;;6.30;99.90;;;;;;5068853;28;20040;-71
2022/04/16 02:16:54;;;;;;;28.70;20.52;;;6.30;99.90;;;;;;5045894;28;20040;-71
2022/04/16 02:19:20;;;;;;;25.02;19.67;;;6.30;99.90;;;;;;5052700;28;20040;-71
2022/04/16 02:21:47;;;;;;;27.05;21.35;;;6.20;99.90;;;;;;5043020;28;20115;-71
2022/04/16 02:24:13;;;;;;;28.10;20.52;;;6.20;99.90;;;;;;5050243;28;20047;-71
2022/04/16 02:26:43;;;;;;;25.55;20.17;;;6.20;99.90;;;;;;5044150;28;20127;-71
2022/04/16 02:29:09;;;;;;;26.67;20.50;;;6.20;99.90;;;;;;5047671;28;20115;-72
2022/04/16 02:31:37;;;;;;;27.23;20.92;;;6.20;99.90;;;;;;5049565;28;20120;-72
2022/04/16 02:34:10;;;;;;;24.02;19.60;;;6.20;99.90;;;;;;5046536;28;20120;-72
2022/04/16 02:36:36;;;;;;;25.33;20.15;;;6.20;99.90;;;;;;5042717;28;20040;-72
2022/04/16 02:39:03;;;;;;;28.52;21.60;;;6.10;99.90;;;;;;5034213;28;20044;-72
2022/04/16 02:41:29;;;;;;;29.73;21.63;;;6.10;99.90;;;;;;5030845;28;20041;-72
2022/04/16 02:43:55;;;;;;;27.20;21.48;;;6.10;99.90;;;;;;5058600;28;20036;-72
2022/04/16 02:49:07;;;;;;;29.67;20.98;;;6.10;99.90;;;;;;5074382;28;20068;-73
2022/04/16 02:51:33;;;;;;;29.35;22.20;;;6.10;99.90;;;;;;5073943;28;20047;-72
2022/04/16 02:53:59;;;;;;;29.77;22.52;;;6.10;99.90;;;;;;5070110;28;20033;-72
2022/04/16 02:56:24;;;;;;;31.05;22.30;;;6.10;99.90;;;;;;5035900;28;20074;-72
2022/04/16 02:58:50;;;;;;;26.90;20.77;;;6.10;99.90;;;;;;5046358;28;20068;-72
2022/04/16 03:01:16;;;;;;;31.80;22.52;;;6.00;99.90;;;;;;5050960;28;20064;-72
2022/04/16 03:03:41;;;;;;;34.22;23.73;;;6.00;99.90;;;;;;5069758;28;20098;-72
2022/04/16 03:06:08;;;;;;;33.25;23.85;;;6.00;99.90;;;;;;5071908;28;20104;-72
2022/04/16 03:08:34;;;;;;;33.35;23.08;;;6.00;99.90;;;;;;5053396;28;20047;-72
2022/04/16 03:11:00;;;;;;;31.85;23.63;;;6.00;99.90;;;;;;5069753;28;20439;-72
2022/04/16 03:13:26;;;;;;;36.22;24.50;;;5.90;99.90;;;;;;5067531;28;20074;-72
2022/04/16 03:18:37;;;;;;;36.72;25.90;;;5.90;99.90;;;;;;5072694;28;20045;-72
2022/04/16 03:21:03;;;;;;;34.35;24.13;;;5.90;99.90;;;;;;5048882;28;20119;-72
2022/04/16 03:23:29;;;;;;;32.13;24.35;;;5.90;99.90;;;;;;5058940;28;20073;-72
2022/04/16 03:25:58;;;;;;;35.55;25.10;;;5.90;99.90;;;;;;5064598;28;20686;-72
2022/04/16 03:28:24;;;;;;;37.85;25.20;;;5.90;99.90;;;;;;5056757;28;20048;-72
2022/04/16 03:30:50;;;;;;;33.55;24.35;;;5.90;99.90;;;;;;5048028;28;20418;-72
2022/04/16 03:33:16;;;;;;;37.88;25.45;;;5.90;99.90;;;;;;5053178;28;20044;-72
2022/04/16 03:35:41;;;;;;;35.03;25.90;;;5.90;99.90;;;;;;5049641;28;20048;-72
2022/04/16 03:38:07;;;;;;;33.55;24.13;;;5.80;99.90;;;;;;5064888;28;20044;-72
2022/04/16 03:40:33;;;;;;;33.88;25.20;;;5.80;99.90;;;;;;5043610;28;20058;-72
2022/04/16 03:43:00;;;;;;;37.75;26.67;;;5.80;99.90;;;;;;5052295;28;20479;-73
2022/04/16 03:45:29;;;;;;;40.30;26.80;;;5.80;99.90;;;;;;5069790;28;20040;-73
2022/04/16 03:47:56;;;;;;;39.67;26.23;;;5.80;99.90;;;;;;5052479;28;20045;-73
2022/04/16 03:50:23;;;;;;;37.03;26.65;;;5.80;99.90;;;;;;5070833;28;20028;-73
2022/04/16 03:52:50;;;;;;;41.40;28.35;;;5.80;99.90;;;;;;5050733;28;20068;-73
2022/04/16 04:00:54;;;;;;;41.50;28.13;;;5.90;99.90;;;;;;5060393;22;20096;-74
2022/04/16 04:03:23;;;;;;;41.45;28.85;;;5.90;99.90;;;;;;5013598;28;20077;-74
2022/04/16 04:05:49;;;;;;;38.38;28.67;;;6.00;99.90;;;;;;5005878;28;20129;-73
2022/04/16 04:08:16;;;;;;;46.10;31.77;;;6.10;99.90;;;;;;5008205;28;20045;-73
2022/04/16 04:10:42;;;;;;;43.83;29.77;;;6.10;99.90;;;;;;5006549;28;20041;-74
2022/04/16 04:13:09;;;;;;;44.40;30.67;;;6.10;99.90;;;;;;5007211;28;20063;-74
2022/04/16 04:15:35;;;;;;;40.53;29.98;;;6.20;99.90;;;;;;4991681;28;20119;-75
2022/04/16 04:18:01;;;;;;;41.72;30.25;;;6.30;99.90;;;;;;5012528;28;20140;-74
2022/04/16 04:20:28;;;;;;;48.53;32.70;;;6.30;99.90;;;;;;5024595;28;20053;-73
2022/04/16 04:22:54;;;;;;;43.25;29.92;;;6.40;99.90;;;;;;5004502;28;20042;-74
2022/04/16 04:25:20;;;;;;;45.63;31.77;;;6.40;99.90;;;;;;5014865;28;20510;-74
2022/04/16 04:27:46;;;;;;;43.33;32.00;;;6.50;99.90;;;;;;5030404;28;20048;-73
2022/04/16 04:30:12;;;;;;;46.90;30.67;;;6.50;99.90;;;;;;5015001;28;20037;-73
2022/04/16 04:32:38;;;;;;;46.33;32.70;;;6.60;99.90;;;;;;5010048;28;20156;-74
2022/04/16 04:35:05;;;;;;;45.55;31.63;;;6.60;99.90;;;;;;5013161;28;20068;-74
2022/04/16 04:37:30;;;;;;;40.92;29.92;;;6.70;99.90;;;;;;5024670;28;20120;-74
2022/04/16 04:39:56;;;;;;;44.80;30.52;;;6.70;99.90;;;;;;5013450;28;20168;-76
2022/04/16 04:42:26;;;;;;;44.75;32.05;;;6.70;99.90;;;;;;5013644;28;20033;-73
2022/04/16 04:44:52;;;;;;;47.30;33.40;;;6.80;99.90;;;;;;5006712;28;20052;-73
2022/04/16 04:47:18;;;;;;;47.03;32.92;;;6.80;99.90;;;;;;5011306;28;20041;-73
2022/04/16 04:49:43;;;;;;;43.60;31.90;;;6.90;99.90;;;;;;5012943;28;20091;-73
2022/04/16 04:52:09;;;;;;;43.95;31.42;;;6.90;99.90;;;;;;5009738;28;20820;-73
2022/04/16 04:54:35;;;;;;;37.58;28.67;;;6.90;99.90;;;;;;4999299;28;20127;-73
2022/04/16 04:57:03;;;;;;;37.22;27.80;;;7.00;99.90;;;;;;5015880;28;20046;-73
2022/04/16 04:59:28;;;;;;;37.25;28.13;;;7.00;99.90;;;;;;5008241;28;20049;-73
2022/04/16 05:01:54;;;;;;;35.03;25.60;;;7.10;99.90;;;;;;5004141;28;20248;-73
2022/04/16 05:04:19;;;;;;;36.30;25.95;;;7.20;99.90;;;;;;5010795;28;20030;-73
2022/04/16 05:06:45;;;;;;;32.28;23.77;;;7.20;99.90;;;;;;5002290;28;20621;-73
2022/04/16 05:09:11;;;;;;;29.90;23.30;;;7.30;99.90;;;;;;5030517;28;20044;-73
2022/04/16 05:11:37;;;;;;;32.15;23.98;;;7.30;99.90;;;;;;5012403;28;20045;-73
2022/04/16 05:14:03;;;;;;;33.20;23.50;;;7.30;99.90;;;;;;5005987;28;20053;-73
2022/04/16 05:16:28;;;;;;;31.80;22.70;;;7.30;99.90;;;;;;5011106;28;20042;-73
2022/04/16 05:18:54;;;;;;;33.78;22.67;;;7.40;99.90;;;;;;5002910;28;20131;-73
2022/04/16 05:21:20;;;;;;;30.05;22.25;;;7.50;99.90;;;;;;5003292;28;20045;-73
2022/04/16 05:23:45;;;;;;;28.70;21.52;;;7.50;99.90;;;;;;5012038;28;20038;-73
2022/04/16 05:26:11;;;;;;;28.80;21.58;;;7.50;99.90;;;;;;5029462;28;20041;-73
2022/04/16 05:28:37;;;;;;;28.65;20.85;;;7.60;99.90;;;;;;4994784;28;20491;-73
2022/04/16 05:31:05;;;;;;;30.73;20.92;;;7.60;99.90;;;;;;5024292;28;20049;-73
2022/04/16 05:36:16;;;;;;;28.30;20.48;;;7.70;99.90;;;;;;5027372;28;20691;-73
2022/04/16 05:38:42;;;;;;;28.10;20.42;;;7.70;99.90;;;;;;5013204;28;20561;-73
2022/04/16 05:41:08;;;;;;;27.42;21.02;;;7.80;99.90;;;;;;5004890;28;20045;-74
2022/04/16 05:43:35;;;;;;;26.30;19.20;;;7.80;99.90;;;;;;5013065;28;20100;-74
2022/04/16 05:46:02;;;;;;;24.35;19.30;;;7.90;99.90;;;;;;5012131;28;20467;-74
2022/04/16 05:48:28;;;;;;;25.92;19.58;;;7.90;99.90;;;;;;5029173;28;20091;-74
2022/04/16 05:50:53;;;;;;;23.95;18.95;;;7.90;99.90;;;;;;5014736;28;20472;-74
2022/04/16 05:53:21;;;;;;;27.17;19.88;;;8.00;99.90;;;;;;5013284;28;20044;-74
2022/04/16 05:55:48;;;;;;;25.77;19.67;;;8.00;99.90;;;;;;5009430;28;20447;-74
2022/04/16 05:58:14;;;;;;;27.05;18.92;;;8.00;99.90;;;;;;5027543;28;20441;-74
2022/04/16 06:00:40;;;;;;;25.80;17.75;;;8.10;99.90;;;;;;5009979;28;20403;-74
2022/04/16 06:03:06;;;;;;;27.67;19.73;;;8.10;99.90;;;;;;5008857;28;20117;-74
2022/04/16 06:05:32;;;;;;;26.92;18.77;;;8.20;99.90;;;;;;4993638;28;20033;-74
2022/04/16 06:08:01;;;;;;;24.98;18.58;;;8.20;99.90;;;;;;5012178;28;20048;-74
2022/04/16 06:10:27;;;;;;;23.52;18.15;;;8.30;99.90;;;;;;5003769;28;20034;-74
2022/04/16 06:12:52;;;;;;;25.95;17.77;;;8.30;99.90;;;;;;5003713;28;20553;-74
2022/04/16 06:15:19;;;;;;;22.80;17.30;;;8.30;99.90;;;;;;4986054;28;20052;-74
2022/04/16 06:17:47;;;;;;;24.95;17.35;;;8.30;99.90;;;;;;5006622;28;20045;-74
2022/04/16 06:20:14;;;;;;;25.77;17.08;;;8.40;99.90;;;;;;5003232;28;20042;-74
2022/04/16 06:22:40;;;;;;;30.92;17.88;;;8.40;99.90;;;;;;5002228;28;20132;-74
2022/04/16 06:25:08;;;;;;;25.42;17.17;;;8.40;99.90;;;;;;5025543;28;20571;-74
2022/04/16 06:27:38;;;;;;;21.58;16.08;;;8.40;99.90;;;;;;5007475;28;20128;-74
2022/04/16 06:30:07;;;;;;;21.27;15.77;;;8.40;99.90;;;;;;5008405;28;20634;-74
2022/04/16 06:32:34;;;;;;;22.45;16.00;;;8.40;99.90;;;;;;4990175;28;20092;-74
2022/04/16 06:35:00;;;;;;;22.67;15.27;;;8.30;99.90;;;;;;5005992;28;20069;-74
2022/04/16 06:37:26;;;;;;;22.92;15.73;;;8.30;99.90;;;;;;4998015;28;20073;-74
2022/04/16 06:39:52;;;;;;;23.17;16.02;;;8.30;99.90;;;;;;5000789;28;20507;-74
2022/04/16 06:42:18;;;;;;;21.85;15.55;;;8.30;99.90;;;;;;5027116;28;20156;-74
2022/04/16 06:44:43;;;;;;;22.52;16.10;;;8.40;99.90;;;;;;5006934;28;20427;-74
2022/04/16 06:47:09;;;;;;;21.73;15.40;;;8.40;99.90;;;;;;5012571;28;20073;-75
2022/04/16 06:49:34;;;;;;;23.15;15.52;;;8.40;99.90;;;;;;5010245;28;20453;-75
2022/04/16 06:52:00;;;;;;;17.90;14.48;;;8.50;99.90;;;;;;5005726;28;20041;-75
2022/04/16 06:54:26;;;;;;;19.73;14.48;;;8.50;99.90;;;;;;5007165;28;20403;-75
2022/04/16 06:56:52;;;;;;;18.90;14.35;;;8.60;99.90;;;;;;5009311;28;20171;-74
2022/04/16 06:59:17;;;;;;;20.77;14.32;;;8.70;99.90;;;;;;5009448;28;20405;-74
2022/04/16 07:01:43;;;;;;;19.50;14.48;;;8.70;99.90;;;;;;5004757;28;20041;-74
2022/04/16 07:04:08;;;;;;;20.25;14.35;;;8.70;99.90;;;;;;5012692;28;20037;-74
2022/04/16 07:06:34;;;;;;;18.95;15.02;;;8.70;99.90;;;;;;5007622;28;20044;-74
2022/04/16 07:09:01;;;;;;;21.70;15.45;;;8.80;99.90;;;;;;5007523;28;20041;-74
2022/04/16 07:11:26;;;;;;;21.25;14.82;;;8.70;99.90;;;;;;5007484;28;20034;-74
2022/04/16 07:13:52;;;;;;;21.00;14.57;;;8.80;99.90;;;;;;5010183;28;20053;-74
2022/04/16 07:16:17;;;;;;;20.08;14.38;;;8.90;99.90;;;;;;5007827;28;20041;-74
2022/04/16 07:18:43;;;;;;;37.38;33.53;;;8.80;99.90;;;;;;5003936;28;20034;-73
2022/04/16 07:21:09;;;;;;;21.08;16.67;;;9.00;99.90;;;;;;5009253;28;20052;-75
2022/04/16 07:23:34;;;;;;;21.17;14.20;;;9.10;99.90;;;;;;4996851;28;20042;-74
2022/04/16 07:26:00;;;;;;;18.25;13.68;;;9.30;99.90;;;;;;5016389;28;20092;-73
2022/04/16 07:28:25;;;;;;;17.70;13.18;;;9.40;99.90;;;;;;5008170;28;20056;-73
2022/04/16 07:30:51;;;;;;;19.27;13.35;;;9.40;99.90;;;;;;5030487;28;20041;-73
2022/04/16 07:33:18;;;;;;;17.30;13.02;;;9.50;99.90;;;;;;5012985;28;20030;-73
2022/04/16 07:35:44;;;;;;;17.60;12.70;;;9.60;99.90;;;;;;5022761;28;20034;-75
2022/04/16 07:38:10;;;;;;;16.85;12.75;;;9.70;99.90;;;;;;5011160;28;20037;-75
2022/04/16 07:40:35;;;;;;;17.17;12.77;;;9.80;99.90;;;;;;5023583;28;20124;-75
2022/04/16 07:43:02;;;;;;;15.40;11.77;;;10.00;99.90;;;;;;4978865;28;20041;-75
2022/04/16 07:45:32;;;;;;;16.52;12.45;;;10.10;99.90;;;;;;5004525;28;20052;-74
2022/04/16 07:47:58;;;;;;;16.55;10.98;;;10.20;99.90;;;;;;5010511;28;20065;-73
2022/04/16 07:50:23;;;;;;;14.43;10.50;;;10.20;99.90;;;;;;5010021;28;20065;-73
2022/04/16 07:52:49;;;;;;;14.93;9.93;;;10.30;99.90;;;;;;5009613;28;20045;-73
2022/04/16 07:55:15;;;;;;;12.38;9.50;;;10.40;99.90;;;;;;5004097;28;20052;-73
2022/04/16 07:57:41;;;;;;;13.88;10.10;;;10.50;99.90;;;;;;5007589;28;20128;-73
2022/04/16 08:00:10;;;;;;;13.52;10.50;;;10.60;99.90;;;;;;5008293;28;20045;-73
2022/04/16 08:02:35;;;;;;;13.77;10.48;;;10.70;99.90;;;;;;5005800;28;20030;-73
2022/04/16 08:05:01;;;;;;;12.93;8.75;;;10.80;99.90;;;;;;5008502;28;20067;-73
2022/04/16 08:07:27;;;;;;;11.35;9.45;;;10.90;99.90;;;;;;5005846;28;20029;-73
2022/04/16 08:09:53;;;;;;;11.90;9.27;;;11.00;99.90;;;;;;5023897;28;20095;-72
2022/04/16 08:12:18;;;;;;;11.25;9.10;;;11.10;99.90;;;;;;5019119;28;20029;-72
2022/04/16 08:14:44;;;;;;;10.75;8.00;;;11.20;99.90;;;;;;5003908;28;20124;-73
2022/04/16 08:17:10;;;;;;;10.27;7.65;;;11.30;99.90;;;;;;5015398;28;20033;-73
2022/04/16 08:19:35;;;;;;;10.23;7.40;;;11.40;99.90;;;;;;5010849;28;20038;-73
2022/04/16 08:22:06;;;;;;;10.68;7.47;;;11.60;99.90;;;;;;5008136;28;20043;-73
2022/04/16 08:24:41;;;;;;;9.15;6.93;;;11.70;99.90;;;;;;5011453;28;20033;-72
2022/04/16 08:27:07;;;;;;;10.30;6.88;;;11.70;99.90;;;;;;5003273;28;20038;-72
2022/04/16 08:29:33;;;;;;;8.85;6.80;;;11.80;99.90;;;;;;5002391;28;20052;-73
2022/04/16 08:31:59;;;;;;;9.75;6.70;;;11.80;99.90;;;;;;5009951;28;20038;-74
2022/04/16 08:34:25;;;;;;;8.40;6.50;;;12.00;99.90;;;;;;5014220;28;20148;-73
2022/04/16 08:36:51;;;;;;;9.00;6.35;;;12.10;99.90;;;;;;5005264;28;20056;-74
2022/04/16 08:39:16;;;;;;;7.80;5.93;;;12.20;99.90;;;;;;5011530;28;20033;-73
2022/04/16 08:41:42;;;;;;;9.20;6.55;;;12.30;99.90;;;;;;5003336;28;20041;-74
2022/04/16 08:44:08;;;;;;;7.72;5.60;;;12.30;99.90;;;;;;5006819;28;20406;-73
2022/04/16 08:46:35;;;;;;;8.18;5.55;;;12.40;99.90;;;;;;5005139;28;20048;-74
2022/04/16 08:49:01;;;;;;;7.20;5.10;;;12.50;99.90;;;;;;5007436;28;20540;-74
2022/04/16 08:51:27;;;;;;;7.35;4.88;;;12.60;99.90;;;;;;5008847;28;20124;-75
2022/04/16 08:53:53;;;;;;;5.82;4.78;;;12.70;99.90;;;;;;5001243;28;20049;-74
2022/04/16 08:56:19;;;;;;;5.32;4.07;;;12.80;99.80;;;;;;5002557;28;20388;-74
2022/04/16 08:58:44;;;;;;;5.43;3.85;;;12.80;99.70;;;;;;5008192;28;21572;-74
2022/04/16 09:01:11;;;;;;;5.32;3.40;;;13.00;99.90;;;;;;5020465;28;20500;-74
2022/04/16 09:03:39;;;;;;;7.65;3.47;;;13.10;98.20;;;;;;5009124;28;20048;-74
2022/04/16 09:06:07;;;;;;;5.68;3.38;;;13.20;93.20;;;;;;5024788;28;20486;-74
2022/04/16 09:08:34;;;;;;;8.95;3.53;;;13.20;90.50;;;;;;5020333;28;20033;-73
2022/04/16 09:11:04;;;;;;;6.57;2.90;;;13.30;86.60;;;;;;5006795;28;20041;-74
2022/04/16 09:13:30;;;;;;;6.65;3.17;;;13.40;79.00;;;;;;5025183;28;20037;-74
2022/04/16 09:16:06;;;;;;;13.57;4.07;;;13.40;83.10;;;;;;5022897;28;20435;-74
2022/04/16 09:18:45;;;;;;;6.78;3.47;;;13.50;85.20;;;;;;5023114;28;20041;-73
2022/04/16 09:21:13;;;;;;;5.68;3.10;;;13.60;81.60;;;;;;5022333;28;20037;-75
2022/04/16 09:23:47;;;;;;;4.50;2.50;;;13.50;77.10;;;;;;5008207;28;20052;-74
2022/04/16 09:26:23;;;;;;;4.47;2.70;;;13.60;77.80;;;;;;5003374;28;20037;-74
2022/04/16 09:28:49;;;;;;;4.15;2.70;;;13.70;79.40;;;;;;5009549;28;20069;-74
2022/04/16 09:31:15;;;;;;;3.05;2.63;;;13.80;76.20;;;;;;5009291;28;20692;-74
2022/04/16 09:33:41;;;;;;;3.65;2.05;;;13.90;73.70;;;;;;5028906;28;20041;-74
2022/04/16 09:36:07;;;;;;;2.58;2.10;;;14.00;67.50;;;;;;5008651;28;20537;-74
2022/04/16 09:38:37;;;;;;;4.53;2.22;;;14.10;68.40;;;;;;5008133;28;20038;-74
2022/04/16 09:41:08;;;;;;;5.25;2.40;;;14.10;65.10;;;;;;4998670;28;20038;-74
2022/04/16 09:43:37;;;;;;;3.92;2.22;;;14.20;65.40;;;;;;5008220;28;20041;-73
2022/04/16 09:46:11;;;;;;;3.20;2.20;;;14.20;62.90;;;;;;5023260;28;20060;-74
2022/04/16 09:48:37;;;;;;;3.35;2.33;;;14.30;69.60;;;;;;5026281;28;20086;-74
2022/04/16 09:51:04;;;;;;;3.30;2.35;;;14.60;70.10;;;;;;5006920;28;20033;-74
2022/04/16 09:53:31;;;;;;;4.78;2.60;;;14.70;68.10;;;;;;5026008;28;20033;-74
2022/04/16 09:55:59;;;;;;;2.83;1.92;;;14.90;66.50;;;;;;5006042;28;20061;-74
2022/04/16 09:58:38;;;;;;;3.13;2.25;;;15.00;63.30;;;;;;5023975;28;20042;-73
2022/04/16 10:01:04;;;;;;;5.72;1.90;;;15.10;66.40;;;;;;5002007;28;20069;-73
2022/04/16 10:03:32;;;;;;;3.53;1.80;;;15.20;63.40;;;;;;5042560;22;20406;-74
2022/04/16 10:05:59;;;;;;;3.00;2.13;;;15.30;59.70;;;;;;5052403;28;20051;-73
2022/04/16 10:08:25;;;;;;;3.03;1.85;;;15.30;62.00;;;;;;5053119;28;20062;-73
2022/04/16 10:10:55;;;;;;;2.85;1.40;;;15.40;60.30;;;;;;5034569;28;20040;-74
2022/04/16 10:13:22;;;;;;;2.13;1.27;;;15.40;58.10;;;;;;5035592;28;20033;-73
2022/04/16 10:15:50;;;;;;;1.67;1.23;;;15.50;58.70;;;;;;5052941;28;20044;-73
2022/04/16 10:18:16;;;;;;;1.38;1.10;;;15.70;58.40;;;;;;5054137;28;20041;-73
2022/04/16 10:20:59;;;;;;;1.98;1.20;;;16.00;57.20;;;;;;5053428;28;20398;-73
2022/04/16 10:23:45;;;;;;;2.58;1.30;;;16.10;55.30;;;;;;5046632;28;20088;-74
2022/04/16 10:26:16;;;;;;;1.58;1.10;;;16.10;51.90;;;;;;5049953;28;20094;-74
2022/04/16 10:28:53;;;;;;;2.58;1.13;;;16.00;51.70;;;;;;5049340;28;20056;-74
2022/04/16 10:31:29;;;;;;;1.90;1.17;;;16.10;53.60;;;;;;5044101;28;20033;-74
2022/04/16 10:34:05;;;;;;;1.73;1.10;;;16.20;52.00;;;;;;5048185;28;20119;-74
2022/04/16 10:36:39;;;;;;;1.83;1.30;;;16.30;50.70;;;;;;5044856;28;20043;-74
2022/04/16 10:39:18;;;;;;;1.90;1.20;;;16.40;49.40;;;;;;5044500;28;20124;-74
2022/04/16 10:42:04;;;;;;;1.88;1.00;;;16.40;48.60;;;;;;5045853;28;20040;-73
2022/04/16 10:44:47;;;;;;;1.10;1.00;;;16.40;48.40;;;;;;5062547;28;20037;-73
2022/04/16 10:47:13;;;;;;;;;;;16.50;47.80;;;;;;5046997;28;20094;-73
2022/04/16 10:49:43;;;;;;;5.55;0.90;;;16.80;48.30;;;;;;5048383;28;19916;-73
2022/04/16 10:52:23;;;;;;;2.17;1.10;;;16.90;46.60;;;;;;5052320;28;20037;-73
2022/04/16 10:55:00;;;;;;;1.92;1.00;;;17.10;45.20;;;;;;5051257;28;20072;-73
2022/04/16 10:57:26;;;;;;;2.95;1.00;;;17.20;46.10;;;;;;5054622;28;20044;-73
2022/04/16 10:59:56;;;;;;;1.63;1.10;;;17.40;46.20;;;;;;5048176;28;20113;-74
2022/04/16 11:02:25;;;;;;;2.75;1.13;;;17.40;48.10;;;;;;5053138;28;20040;-72
2022/04/16 11:05:09;;;;;;;1.58;0.90;;;17.40;49.50;;;;;;5054048;28;20041;-73
2022/04/16 11:07:39;;;;;;;1.67;0.80;;;17.40;47.30;;;;;;5056631;28;20059;-73
2022/04/16 11:10:06;;;;;;;2.90;1.00;;;17.50;45.00;;;;;;5035209;28;20780;-73
2022/04/16 11:12:32;;;;;;;1.95;0.95;;;17.60;43.10;;;;;;5039007;28;20045;-73
2022/04/16 11:14:59;;;;;;;1.52;0.98;;;17.70;43.70;;;;;;5039358;28;20075;-73
2022/04/16 11:17:25;;;;;;;1.55;1.10;;;17.80;43.20;;;;;;5017279;28;20045;-73
2022/04/16 11:19:59;;;;;;;1.55;0.90;;;17.80;45.70;;;;;;5036781;28;20040;-73
2022/04/16 11:22:25;;;;;;;0.95;0.93;;;17.90;44.60;;;;;;5055314;28;20110;-73
2022/04/16 11:24:51;;;;;;;1.05;0.90;;;17.90;45.50;;;;;;5036307;28;20171;-72
2022/04/16 11:36:00;;;;;;;2.67;1.05;;;17.80;44.10;;;;;;5051373;28;20107;-72
2022/04/16 11:38:30;;;;;;;1.95;0.90;;;18.00;43.20;;;;;;5053680;28;20041;-73
2022/04/16 11:41:00;;;;;;;1.70;1.00;;;18.00;44.40;;;;;;5058315;28;20067;-72
2022/04/16 11:43:28;;;;;;;2.35;1.00;;;18.20;41.10;;;;;;5069874;28;20083;-73
2022/04/16 11:45:55;;;;;;;3.97;1.10;;;18.10;42.20;;;;;;5052349;28;20128;-72
2022/04/16 11:48:22;;;;;;;3.42;1.00;;;18.10;41.80;;;;;;5052992;28;20040;-73
2022/04/16 11:50:48;;;;;;;1.52;0.95;;;18.20;43.00;;;;;;5053198;28;20060;-72
2022/04/16 11:53:14;;;;;;;1.58;1.00;;;18.10;41.20;;;;;;5050507;28;20037;-72
2022/04/16 11:55:46;;;;;;;2.10;0.85;;;18.20;40.60;;;;;;5054134;28;20043;-72
2022/04/16 11:58:12;;;;;;;3.22;0.90;;;18.30;42.40;;;;;;5054206;28;20082;-71
2022/04/16 12:00:53;;;;;;;4.20;1.20;;;18.20;38.60;;;;;;5053126;28;20036;-72
2022/04/16 12:03:18;;;;;;;6.47;1.20;;;18.30;40.40;;;;;;5054088;28;20394;-72
2022/04/16 12:05:44;;;;;;;1.40;0.80;;;18.30;39.50;;;;;;5053051;28;20041;-72
2022/04/16 12:08:10;;;;;;;3.90;1.00;;;18.40;40.80;;;;;;5052895;28;20041;-72
2022/04/16 12:10:37;;;;;;;4.15;0.95;;;18.60;39.10;;;;;;5053492;28;20171;-72
2022/04/16 12:13:12;;;;;;;4.18;0.90;;;18.60;38.30;;;;;;5050229;28;20048;-72
2022/04/16 12:15:45;;;;;;;3.55;1.00;;;18.60;40.10;;;;;;5051219;28;20040;-72
2022/04/16 12:18:16;;;;;;;3.33;0.90;;;18.80;39.90;;;;;;5049207;28;20509;-72
2022/04/16 12:20:43;;;;;;;2.28;1.08;;;18.90;39.40;;;;;;5049662;28;20055;-72
2022/04/16 12:23:13;;;;;;;3.67;1.08;;;19.10;39.80;;;;;;5048386;28;20136;-73
2022/04/16 12:25:39;;;;;;;1.40;0.90;;;19.20;39.20;;;;;;5049957;28;20045;-73
2022/04/16 12:28:10;;;;;;;2.33;0.93;;;19.10;39.60;;;;;;5068053;28;20055;-72
2022/04/16 12:30:37;;;;;;;1.20;0.88;;;19.10;40.50;;;;;;5077336;28;20540;-73
2022/04/16 12:33:07;;;;;;;1.38;0.93;;;19.30;37.40;;;;;;5045778;28;20525;-73
2022/04/16 12:35:35;;;;;;;1.55;0.75;;;19.20;40.10;;;;;;5049307;28;20549;-73
2022/04/16 12:38:01;;;;;;;1.10;0.85;;;19.20;39.30;;;;;;5050803;28;20041;-73
2022/04/16 12:40:29;;;;;;;2.03;0.80;;;19.30;39.00;;;;;;5052607;28;20055;-73
2022/04/16 12:42:56;;;;;;;1.10;0.90;;;19.30;39.30;;;;;;5052352;28;20380;-73
2022/04/16 12:45:23;;;;;;;1.35;0.70;;;19.30;39.00;;;;;;5030996;28;20143;-73
2022/04/16 12:47:49;;;;;;;1.55;0.93;;;19.50;39.30;;;;;;5049626;28;20041;-73
2022/04/16 12:50:15;;;;;;;1.15;0.80;;;19.40;37.90;;;;;;5070384;28;20483;-73
2022/04/16 12:52:53;;;;;;;2.00;1.00;;;19.40;38.80;;;;;;5053007;28;20040;-73
2022/04/16 12:55:18;;;;;;;1.30;0.80;;;19.40;39.40;;;;;;5045562;28;20037;-73
2022/04/16 12:57:47;;;;;;;3.65;0.90;;;19.40;40.50;;;;;;5031223;28;20479;-73
2022/04/16 13:00:15;;;;;;;1.85;0.80;;;19.50;37.70;;;;;;5048354;28;20947;-73
2022/04/16 13:02:44;;;;;;;0.70;0.70;;;19.50;37.60;;;;;;5035439;28;20051;-73
2022/04/16 13:05:11;;;;;;;1.13;0.75;;;19.60;39.40;;;;;;5047736;28;20034;-72